sensor_id;sensor_type;location;lat;lon;timestamp;P1;durP1;ratioP1;P2;durP2;ratioP2
15342;SDS011;7771;48.478;8.936;2022-12-29T00:01:48;2.57;;;2.33;;
15342;SDS011;7771;48.478;8.936;2022-12-29T00:04:16;6.27;;;2.23;;
15342;SDS011;7771;48.478;8.936;2022-12-29T00:06:43;3.20;;;2.30;;
15342;SDS011;7771;48.478;8.936;2022-12-29T00:09:11;4.43;;;3.60;;
15342;SDS011;7771;48.478;8.936;2022-12-29T00:11:38;4.77;;;2.47;;
15342;SDS011;7771;48.478;8.936;2022-12-29T00:14:05;2.53;;;2.10;;
15342;SDS011;7771;48.478;8.936;2022-12-29T00:16:38;15.93;;;6.67;;
15342;SDS011;7771;48.478;8.936;2022-12-29T00:19:04;10.13;;;5.60;;
15342;SDS011;7771;48.478;8.936;2022-12-29T00:21:31;9.20;;;5.17;;
15342;SDS011;7771;48.478;8.936;2022-12-29T00:24:04;9.47;;;4.13;;
15342;SDS011;7771;48.478;8.936;2022-12-29T00:26:32;6.20;;;3.00;;
15342;SDS011;7771;48.478;8.936;2022-12-29T00:29:06;6.67;;;2.40;;
15342;SDS011;7771;48.478;8.936;2022-12-29T00:31:38;4.30;;;2.30;;
15342;SDS011;7771;48.478;8.936;2022-12-29T00:34:11;4.20;;;2.07;;
15342;SDS011;7771;48.478;8.936;2022-12-29T00:36:43;4.70;;;2.70;;
15342;SDS011;7771;48.478;8.936;2022-12-29T00:39:12;4.87;;;3.10;;
15342;SDS011;7771;48.478;8.936;2022-12-29T00:41:44;6.57;;;4.30;;
15342;SDS011;7771;48.478;8.936;2022-12-29T00:44:16;7.63;;;3.90;;
15342;SDS011;7771;48.478;8.936;2022-12-29T00:46:43;6.13;;;2.80;;
15342;SDS011;7771;48.478;8.936;2022-12-29T00:49:11;3.63;;;2.47;;
15342;SDS011;7771;48.478;8.936;2022-12-29T00:51:43;5.47;;;2.23;;
15342;SDS011;7771;48.478;8.936;2022-12-29T00:54:11;2.97;;;2.10;;
15342;SDS011;7771;48.478;8.936;2022-12-29T00:56:38;3.03;;;2.27;;
15342;SDS011;7771;48.478;8.936;2022-12-29T00:59:07;2.80;;;1.93;;
15342;SDS011;7771;48.478;8.936;2022-12-29T01:01:34;3.37;;;1.83;;
15342;SDS011;7771;48.478;8.936;2022-12-29T01:04:00;2.13;;;1.60;;
15342;SDS011;7771;48.478;8.936;2022-12-29T01:06:27;2.07;;;1.80;;
15342;SDS011;7771;48.478;8.936;2022-12-29T01:08:54;3.27;;;1.50;;
15342;SDS011;7771;48.478;8.936;2022-12-29T01:11:27;1.87;;;1.77;;
15342;SDS011;7771;48.478;8.936;2022-12-29T01:13:54;1.37;;;1.27;;
15342;SDS011;7771;48.478;8.936;2022-12-29T01:16:21;2.67;;;1.80;;
15342;SDS011;7771;48.478;8.936;2022-12-29T01:18:48;1.93;;;1.70;;
15342;SDS011;7771;48.478;8.936;2022-12-29T01:21:14;4.60;;;1.97;;
15342;SDS011;7771;48.478;8.936;2022-12-29T01:23:42;3.87;;;1.80;;
15342;SDS011;7771;48.478;8.936;2022-12-29T01:26:10;2.40;;;1.90;;
15342;SDS011;7771;48.478;8.936;2022-12-29T01:28:36;3.30;;;1.77;;
15342;SDS011;7771;48.478;8.936;2022-12-29T01:31:02;4.43;;;1.70;;
15342;SDS011;7771;48.478;8.936;2022-12-29T01:33:29;8.43;;;2.33;;
15342;SDS011;7771;48.478;8.936;2022-12-29T01:35:59;4.77;;;2.00;;
15342;SDS011;7771;48.478;8.936;2022-12-29T01:38:22;6.27;;;2.67;;
15342;SDS011;7771;48.478;8.936;2022-12-29T01:40:49;3.20;;;2.30;;
15342;SDS011;7771;48.478;8.936;2022-12-29T01:43:16;4.80;;;2.17;;
15342;SDS011;7771;48.478;8.936;2022-12-29T01:45:45;3.17;;;2.00;;
15342;SDS011;7771;48.478;8.936;2022-12-29T01:48:11;4.07;;;2.27;;
15342;SDS011;7771;48.478;8.936;2022-12-29T01:50:39;5.17;;;2.00;;
15342;SDS011;7771;48.478;8.936;2022-12-29T01:53:10;3.97;;;2.00;;
15342;SDS011;7771;48.478;8.936;2022-12-29T01:55:38;3.43;;;1.40;;
15342;SDS011;7771;48.478;8.936;2022-12-29T01:58:03;2.70;;;1.70;;
15342;SDS011;7771;48.478;8.936;2022-12-29T02:00:30;3.47;;;1.90;;
15342;SDS011;7771;48.478;8.936;2022-12-29T02:02:57;3.07;;;1.40;;
15342;SDS011;7771;48.478;8.936;2022-12-29T02:05:27;3.37;;;1.20;;
15342;SDS011;7771;48.478;8.936;2022-12-29T02:07:52;3.37;;;1.60;;
15342;SDS011;7771;48.478;8.936;2022-12-29T02:10:20;2.03;;;1.30;;
15342;SDS011;7771;48.478;8.936;2022-12-29T02:12:47;4.33;;;1.30;;
15342;SDS011;7771;48.478;8.936;2022-12-29T02:15:13;2.47;;;1.30;;
15342;SDS011;7771;48.478;8.936;2022-12-29T02:17:50;4.67;;;1.40;;
15342;SDS011;7771;48.478;8.936;2022-12-29T02:20:24;1.53;;;1.43;;
15342;SDS011;7771;48.478;8.936;2022-12-29T02:23:11;3.80;;;1.60;;
15342;SDS011;7771;48.478;8.936;2022-12-29T02:25:42;2.53;;;1.30;;
15342;SDS011;7771;48.478;8.936;2022-12-29T02:28:13;3.23;;;1.40;;
15342;SDS011;7771;48.478;8.936;2022-12-29T02:30:41;3.00;;;1.50;;
15342;SDS011;7771;48.478;8.936;2022-12-29T02:38:25;2.83;;;1.80;;
15342;SDS011;7771;48.478;8.936;2022-12-29T02:40:53;1.83;;;1.47;;
15342;SDS011;7771;48.478;8.936;2022-12-29T02:43:21;4.00;;;1.60;;
15342;SDS011;7771;48.478;8.936;2022-12-29T02:45:57;3.07;;;1.50;;
15342;SDS011;7771;48.478;8.936;2022-12-29T02:48:28;2.57;;;1.17;;
15342;SDS011;7771;48.478;8.936;2022-12-29T02:50:59;2.03;;;1.37;;
15342;SDS011;7771;48.478;8.936;2022-12-29T02:53:24;2.60;;;1.20;;
15342;SDS011;7771;48.478;8.936;2022-12-29T02:55:56;1.93;;;1.33;;
15342;SDS011;7771;48.478;8.936;2022-12-29T02:58:23;2.13;;;1.30;;
15342;SDS011;7771;48.478;8.936;2022-12-29T03:00:55;3.00;;;1.10;;
15342;SDS011;7771;48.478;8.936;2022-12-29T03:04:00;3.37;;;1.40;;
15342;SDS011;7771;48.478;8.936;2022-12-29T03:06:12;1.93;;;1.10;;
15342;SDS011;7771;48.478;8.936;2022-12-29T03:08:48;7.20;;;3.93;;
15342;SDS011;7771;48.478;8.936;2022-12-29T03:11:19;1.60;;;1.30;;
15342;SDS011;7771;48.478;8.936;2022-12-29T03:13:53;2.93;;;1.47;;
15342;SDS011;7771;48.478;8.936;2022-12-29T03:16:32;3.47;;;1.37;;
15342;SDS011;7771;48.478;8.936;2022-12-29T03:19:04;3.70;;;1.30;;
15342;SDS011;7771;48.478;8.936;2022-12-29T03:24:08;3.20;;;1.10;;
15342;SDS011;7771;48.478;8.936;2022-12-29T03:26:35;1.30;;;1.07;;
15342;SDS011;7771;48.478;8.936;2022-12-29T03:29:01;5.30;;;1.40;;
15342;SDS011;7771;48.478;8.936;2022-12-29T03:31:28;1.93;;;1.10;;
15342;SDS011;7771;48.478;8.936;2022-12-29T03:33:56;2.50;;;1.30;;
15342;SDS011;7771;48.478;8.936;2022-12-29T03:36:26;1.67;;;1.00;;
15342;SDS011;7771;48.478;8.936;2022-12-29T03:38:53;6.50;;;2.00;;
15342;SDS011;7771;48.478;8.936;2022-12-29T03:41:22;2.77;;;1.50;;
15342;SDS011;7771;48.478;8.936;2022-12-29T03:43:45;2.57;;;1.30;;
15342;SDS011;7771;48.478;8.936;2022-12-29T03:46:13;3.03;;;1.20;;
15342;SDS011;7771;48.478;8.936;2022-12-29T03:48:39;3.10;;;2.23;;
15342;SDS011;7771;48.478;8.936;2022-12-29T03:51:06;1.90;;;1.37;;
15342;SDS011;7771;48.478;8.936;2022-12-29T03:53:32;1.87;;;1.10;;
15342;SDS011;7771;48.478;8.936;2022-12-29T03:55:59;1.57;;;1.40;;
15342;SDS011;7771;48.478;8.936;2022-12-29T03:58:26;1.40;;;1.30;;
15342;SDS011;7771;48.478;8.936;2022-12-29T04:00:53;4.53;;;1.30;;
15342;SDS011;7771;48.478;8.936;2022-12-29T04:03:19;1.90;;;1.30;;
15342;SDS011;7771;48.478;8.936;2022-12-29T04:05:46;2.57;;;1.33;;
15342;SDS011;7771;48.478;8.936;2022-12-29T04:08:12;1.90;;;1.40;;
15342;SDS011;7771;48.478;8.936;2022-12-29T04:10:39;2.27;;;1.20;;
15342;SDS011;7771;48.478;8.936;2022-12-29T04:13:06;2.00;;;1.10;;
15342;SDS011;7771;48.478;8.936;2022-12-29T04:15:33;2.00;;;1.50;;
15342;SDS011;7771;48.478;8.936;2022-12-29T04:18:01;1.37;;;1.17;;
15342;SDS011;7771;48.478;8.936;2022-12-29T04:20:28;1.80;;;1.40;;
15342;SDS011;7771;48.478;8.936;2022-12-29T04:23:01;2.73;;;1.37;;
15342;SDS011;7771;48.478;8.936;2022-12-29T04:25:28;3.63;;;1.70;;
15342;SDS011;7771;48.478;8.936;2022-12-29T04:27:55;2.90;;;1.50;;
15342;SDS011;7771;48.478;8.936;2022-12-29T04:30:22;1.60;;;1.37;;
15342;SDS011;7771;48.478;8.936;2022-12-29T04:32:49;2.83;;;1.57;;
15342;SDS011;7771;48.478;8.936;2022-12-29T04:35:16;3.40;;;1.40;;
15342;SDS011;7771;48.478;8.936;2022-12-29T04:37:43;3.20;;;1.20;;
15342;SDS011;7771;48.478;8.936;2022-12-29T04:40:10;3.87;;;1.30;;
15342;SDS011;7771;48.478;8.936;2022-12-29T04:42:37;1.83;;;1.27;;
15342;SDS011;7771;48.478;8.936;2022-12-29T04:45:04;1.67;;;1.30;;
15342;SDS011;7771;48.478;8.936;2022-12-29T04:47:31;2.90;;;1.33;;
15342;SDS011;7771;48.478;8.936;2022-12-29T04:49:58;1.80;;;1.30;;
15342;SDS011;7771;48.478;8.936;2022-12-29T04:52:25;1.60;;;1.30;;
15342;SDS011;7771;48.478;8.936;2022-12-29T04:54:53;3.77;;;1.30;;
15342;SDS011;7771;48.478;8.936;2022-12-29T04:57:20;1.70;;;1.30;;
15342;SDS011;7771;48.478;8.936;2022-12-29T04:59:47;2.07;;;1.40;;
15342;SDS011;7771;48.478;8.936;2022-12-29T05:02:13;2.03;;;1.50;;
15342;SDS011;7771;48.478;8.936;2022-12-29T05:04:40;3.10;;;1.87;;
15342;SDS011;7771;48.478;8.936;2022-12-29T05:07:07;2.87;;;1.83;;
15342;SDS011;7771;48.478;8.936;2022-12-29T05:09:33;4.73;;;2.03;;
15342;SDS011;7771;48.478;8.936;2022-12-29T05:12:00;3.47;;;1.77;;
15342;SDS011;7771;48.478;8.936;2022-12-29T05:14:27;3.37;;;1.63;;
15342;SDS011;7771;48.478;8.936;2022-12-29T05:16:53;2.90;;;1.43;;
15342;SDS011;7771;48.478;8.936;2022-12-29T05:19:20;2.93;;;1.40;;
15342;SDS011;7771;48.478;8.936;2022-12-29T05:21:47;1.60;;;1.37;;
15342;SDS011;7771;48.478;8.936;2022-12-29T05:24:13;2.53;;;1.67;;
15342;SDS011;7771;48.478;8.936;2022-12-29T05:26:40;4.30;;;1.63;;
15342;SDS011;7771;48.478;8.936;2022-12-29T05:29:07;2.63;;;1.37;;
15342;SDS011;7771;48.478;8.936;2022-12-29T05:31:34;4.07;;;1.57;;
15342;SDS011;7771;48.478;8.936;2022-12-29T05:34:02;2.33;;;1.47;;
15342;SDS011;7771;48.478;8.936;2022-12-29T05:36:29;3.00;;;2.13;;
15342;SDS011;7771;48.478;8.936;2022-12-29T05:38:56;3.80;;;2.60;;
15342;SDS011;7771;48.478;8.936;2022-12-29T05:41:23;5.63;;;2.27;;
15342;SDS011;7771;48.478;8.936;2022-12-29T05:43:51;3.00;;;1.80;;
15342;SDS011;7771;48.478;8.936;2022-12-29T05:46:18;2.33;;;1.83;;
15342;SDS011;7771;48.478;8.936;2022-12-29T05:48:46;6.33;;;1.83;;
15342;SDS011;7771;48.478;8.936;2022-12-29T05:51:13;3.03;;;2.00;;
15342;SDS011;7771;48.478;8.936;2022-12-29T05:53:40;3.30;;;1.73;;
15342;SDS011;7771;48.478;8.936;2022-12-29T05:56:07;2.67;;;1.70;;
15342;SDS011;7771;48.478;8.936;2022-12-29T05:58:34;2.70;;;1.90;;
15342;SDS011;7771;48.478;8.936;2022-12-29T06:01:01;2.83;;;1.50;;
15342;SDS011;7771;48.478;8.936;2022-12-29T06:03:28;1.63;;;1.53;;
15342;SDS011;7771;48.478;8.936;2022-12-29T06:05:56;2.90;;;1.40;;
15342;SDS011;7771;48.478;8.936;2022-12-29T06:08:23;3.33;;;1.80;;
15342;SDS011;7771;48.478;8.936;2022-12-29T06:10:50;3.43;;;1.80;;
15342;SDS011;7771;48.478;8.936;2022-12-29T06:13:16;3.93;;;1.67;;
15342;SDS011;7771;48.478;8.936;2022-12-29T06:15:43;2.40;;;1.60;;
15342;SDS011;7771;48.478;8.936;2022-12-29T06:18:10;1.73;;;1.50;;
15342;SDS011;7771;48.478;8.936;2022-12-29T06:20:37;2.87;;;1.70;;
15342;SDS011;7771;48.478;8.936;2022-12-29T06:23:04;2.77;;;1.73;;
15342;SDS011;7771;48.478;8.936;2022-12-29T06:25:31;1.90;;;1.80;;
15342;SDS011;7771;48.478;8.936;2022-12-29T06:27:59;2.23;;;1.67;;
15342;SDS011;7771;48.478;8.936;2022-12-29T06:30:26;3.37;;;1.57;;
15342;SDS011;7771;48.478;8.936;2022-12-29T06:32:52;1.53;;;1.37;;
15342;SDS011;7771;48.478;8.936;2022-12-29T06:35:19;2.00;;;1.50;;
15342;SDS011;7771;48.478;8.936;2022-12-29T06:37:45;2.77;;;1.90;;
15342;SDS011;7771;48.478;8.936;2022-12-29T06:40:12;3.20;;;1.77;;
15342;SDS011;7771;48.478;8.936;2022-12-29T06:42:39;3.50;;;1.70;;
15342;SDS011;7771;48.478;8.936;2022-12-29T06:45:05;6.53;;;1.80;;
15342;SDS011;7771;48.478;8.936;2022-12-29T06:47:32;1.70;;;1.40;;
15342;SDS011;7771;48.478;8.936;2022-12-29T06:49:59;2.07;;;1.40;;
15342;SDS011;7771;48.478;8.936;2022-12-29T06:52:25;4.33;;;1.67;;
15342;SDS011;7771;48.478;8.936;2022-12-29T06:54:52;3.03;;;1.70;;
15342;SDS011;7771;48.478;8.936;2022-12-29T06:57:18;2.93;;;2.00;;
15342;SDS011;7771;48.478;8.936;2022-12-29T06:59:46;4.10;;;1.93;;
15342;SDS011;7771;48.478;8.936;2022-12-29T07:02:13;4.20;;;2.00;;
15342;SDS011;7771;48.478;8.936;2022-12-29T07:04:40;3.37;;;1.70;;
15342;SDS011;7771;48.478;8.936;2022-12-29T07:07:08;5.10;;;2.17;;
15342;SDS011;7771;48.478;8.936;2022-12-29T07:09:35;3.17;;;1.70;;
15342;SDS011;7771;48.478;8.936;2022-12-29T07:12:03;2.90;;;1.70;;
15342;SDS011;7771;48.478;8.936;2022-12-29T07:14:30;4.90;;;1.87;;
15342;SDS011;7771;48.478;8.936;2022-12-29T07:16:56;3.53;;;1.77;;
15342;SDS011;7771;48.478;8.936;2022-12-29T07:19:24;3.60;;;1.60;;
15342;SDS011;7771;48.478;8.936;2022-12-29T07:21:51;2.67;;;1.70;;
15342;SDS011;7771;48.478;8.936;2022-12-29T07:24:18;3.33;;;1.40;;
15342;SDS011;7771;48.478;8.936;2022-12-29T07:26:45;2.50;;;1.67;;
15342;SDS011;7771;48.478;8.936;2022-12-29T07:29:12;2.70;;;1.50;;
15342;SDS011;7771;48.478;8.936;2022-12-29T07:31:39;2.73;;;1.73;;
15342;SDS011;7771;48.478;8.936;2022-12-29T07:34:07;3.80;;;1.67;;
15342;SDS011;7771;48.478;8.936;2022-12-29T07:36:32;2.60;;;1.80;;
15342;SDS011;7771;48.478;8.936;2022-12-29T07:38:59;4.73;;;1.80;;
15342;SDS011;7771;48.478;8.936;2022-12-29T07:41:26;2.73;;;1.90;;
15342;SDS011;7771;48.478;8.936;2022-12-29T07:43:52;3.00;;;2.03;;
15342;SDS011;7771;48.478;8.936;2022-12-29T07:46:21;4.00;;;2.10;;
15342;SDS011;7771;48.478;8.936;2022-12-29T07:48:47;3.03;;;2.13;;
15342;SDS011;7771;48.478;8.936;2022-12-29T07:51:14;3.43;;;1.87;;
15342;SDS011;7771;48.478;8.936;2022-12-29T07:53:41;2.40;;;1.67;;
15342;SDS011;7771;48.478;8.936;2022-12-29T07:56:09;2.63;;;1.63;;
15342;SDS011;7771;48.478;8.936;2022-12-29T07:58:36;3.87;;;2.10;;
15342;SDS011;7771;48.478;8.936;2022-12-29T08:01:04;5.60;;;1.80;;
15342;SDS011;7771;48.478;8.936;2022-12-29T08:03:31;3.00;;;1.83;;
15342;SDS011;7771;48.478;8.936;2022-12-29T08:05:57;2.33;;;1.80;;
15342;SDS011;7771;48.478;8.936;2022-12-29T08:08:24;4.03;;;2.13;;
15342;SDS011;7771;48.478;8.936;2022-12-29T08:10:52;3.50;;;1.60;;
15342;SDS011;7771;48.478;8.936;2022-12-29T08:13:19;1.90;;;1.57;;
15342;SDS011;7771;48.478;8.936;2022-12-29T08:15:47;5.20;;;1.60;;
15342;SDS011;7771;48.478;8.936;2022-12-29T08:20:52;2.67;;;1.57;;
15342;SDS011;7771;48.478;8.936;2022-12-29T08:23:19;5.00;;;2.10;;
15342;SDS011;7771;48.478;8.936;2022-12-29T08:25:47;4.00;;;3.23;;
15342;SDS011;7771;48.478;8.936;2022-12-29T08:28:14;3.60;;;2.10;;
15342;SDS011;7771;48.478;8.936;2022-12-29T08:30:41;2.97;;;1.77;;
15342;SDS011;7771;48.478;8.936;2022-12-29T08:33:09;4.40;;;2.37;;
15342;SDS011;7771;48.478;8.936;2022-12-29T08:35:36;2.83;;;2.00;;
15342;SDS011;7771;48.478;8.936;2022-12-29T08:38:03;2.00;;;1.50;;
15342;SDS011;7771;48.478;8.936;2022-12-29T08:40:31;6.27;;;1.83;;
15342;SDS011;7771;48.478;8.936;2022-12-29T08:42:58;2.23;;;1.83;;
15342;SDS011;7771;48.478;8.936;2022-12-29T08:45:24;6.80;;;3.83;;
15342;SDS011;7771;48.478;8.936;2022-12-29T08:47:52;7.00;;;3.07;;
15342;SDS011;7771;48.478;8.936;2022-12-29T08:50:19;5.10;;;2.10;;
15342;SDS011;7771;48.478;8.936;2022-12-29T08:52:46;3.07;;;1.63;;
15342;SDS011;7771;48.478;8.936;2022-12-29T08:55:13;3.17;;;1.87;;
15342;SDS011;7771;48.478;8.936;2022-12-29T08:57:39;3.70;;;1.97;;
15342;SDS011;7771;48.478;8.936;2022-12-29T09:00:06;2.67;;;1.80;;
15342;SDS011;7771;48.478;8.936;2022-12-29T09:02:34;4.83;;;2.30;;
15342;SDS011;7771;48.478;8.936;2022-12-29T09:05:01;2.63;;;2.20;;
15342;SDS011;7771;48.478;8.936;2022-12-29T09:07:28;5.47;;;2.90;;
15342;SDS011;7771;48.478;8.936;2022-12-29T09:09:55;5.23;;;2.93;;
15342;SDS011;7771;48.478;8.936;2022-12-29T09:12:21;3.57;;;1.90;;
15342;SDS011;7771;48.478;8.936;2022-12-29T09:14:48;5.27;;;3.00;;
15342;SDS011;7771;48.478;8.936;2022-12-29T09:17:15;2.53;;;1.63;;
15342;SDS011;7771;48.478;8.936;2022-12-29T09:19:47;2.77;;;1.40;;
15342;SDS011;7771;48.478;8.936;2022-12-29T09:22:14;2.20;;;1.40;;
15342;SDS011;7771;48.478;8.936;2022-12-29T09:24:40;3.73;;;1.67;;
15342;SDS011;7771;48.478;8.936;2022-12-29T09:27:07;3.00;;;1.93;;
15342;SDS011;7771;48.478;8.936;2022-12-29T09:29:34;2.43;;;1.90;;
15342;SDS011;7771;48.478;8.936;2022-12-29T09:32:00;2.53;;;1.60;;
15342;SDS011;7771;48.478;8.936;2022-12-29T09:34:28;3.43;;;1.60;;
15342;SDS011;7771;48.478;8.936;2022-12-29T09:36:55;2.73;;;1.57;;
15342;SDS011;7771;48.478;8.936;2022-12-29T09:39:22;4.10;;;1.53;;
15342;SDS011;7771;48.478;8.936;2022-12-29T09:41:52;2.80;;;1.57;;
15342;SDS011;7771;48.478;8.936;2022-12-29T09:44:26;5.03;;;1.77;;
15342;SDS011;7771;48.478;8.936;2022-12-29T09:46:53;2.00;;;1.50;;
15342;SDS011;7771;48.478;8.936;2022-12-29T09:49:24;3.23;;;1.90;;
15342;SDS011;7771;48.478;8.936;2022-12-29T09:51:52;1.90;;;1.40;;
15342;SDS011;7771;48.478;8.936;2022-12-29T09:54:21;2.87;;;1.77;;
15342;SDS011;7771;48.478;8.936;2022-12-29T09:56:47;2.40;;;1.80;;
15342;SDS011;7771;48.478;8.936;2022-12-29T09:59:19;3.47;;;2.07;;
15342;SDS011;7771;48.478;8.936;2022-12-29T10:01:47;2.93;;;2.23;;
15342;SDS011;7771;48.478;8.936;2022-12-29T10:04:13;2.63;;;1.70;;
15342;SDS011;7771;48.478;8.936;2022-12-29T10:06:44;3.40;;;1.83;;
15342;SDS011;7771;48.478;8.936;2022-12-29T10:09:26;4.93;;;1.60;;
15342;SDS011;7771;48.478;8.936;2022-12-29T10:14:45;2.77;;;1.50;;
15342;SDS011;7771;48.478;8.936;2022-12-29T10:17:27;4.90;;;2.10;;
15342;SDS011;7771;48.478;8.936;2022-12-29T10:20:14;3.17;;;1.63;;
15342;SDS011;7771;48.478;8.936;2022-12-29T10:25:23;2.87;;;1.50;;
15342;SDS011;7771;48.478;8.936;2022-12-29T10:27:50;1.90;;;1.53;;
15342;SDS011;7771;48.478;8.936;2022-12-29T10:30:17;5.07;;;1.83;;
15342;SDS011;7771;48.478;8.936;2022-12-29T10:32:45;2.60;;;1.40;;
15342;SDS011;7771;48.478;8.936;2022-12-29T10:35:18;2.47;;;1.43;;
15342;SDS011;7771;48.478;8.936;2022-12-29T10:37:52;1.77;;;1.27;;
15342;SDS011;7771;48.478;8.936;2022-12-29T10:43:30;2.10;;;1.33;;
15342;SDS011;7771;48.478;8.936;2022-12-29T10:45:57;4.67;;;1.50;;
15342;SDS011;7771;48.478;8.936;2022-12-29T10:48:26;3.70;;;1.70;;
15342;SDS011;7771;48.478;8.936;2022-12-29T10:50:51;5.97;;;1.93;;
15342;SDS011;7771;48.478;8.936;2022-12-29T10:53:19;2.40;;;1.50;;
15342;SDS011;7771;48.478;8.936;2022-12-29T10:55:45;3.07;;;1.83;;
15342;SDS011;7771;48.478;8.936;2022-12-29T10:58:12;4.20;;;1.50;;
15342;SDS011;7771;48.478;8.936;2022-12-29T11:00:39;2.40;;;1.90;;
15342;SDS011;7771;48.478;8.936;2022-12-29T11:03:16;1.80;;;1.47;;
15342;SDS011;7771;48.478;8.936;2022-12-29T11:05:46;3.20;;;1.50;;
15342;SDS011;7771;48.478;8.936;2022-12-29T11:08:17;3.47;;;1.60;;
15342;SDS011;7771;48.478;8.936;2022-12-29T11:10:45;3.50;;;1.87;;
15342;SDS011;7771;48.478;8.936;2022-12-29T11:13:19;1.87;;;1.27;;
15342;SDS011;7771;48.478;8.936;2022-12-29T11:15:49;4.20;;;1.63;;
15342;SDS011;7771;48.478;8.936;2022-12-29T11:18:18;2.17;;;1.43;;
15342;SDS011;7771;48.478;8.936;2022-12-29T11:20:47;2.07;;;1.43;;
15342;SDS011;7771;48.478;8.936;2022-12-29T11:23:22;2.73;;;1.80;;
15342;SDS011;7771;48.478;8.936;2022-12-29T11:28:31;2.43;;;1.53;;
15342;SDS011;7771;48.478;8.936;2022-12-29T11:30:59;2.90;;;1.50;;
15342;SDS011;7771;48.478;8.936;2022-12-29T11:33:27;2.77;;;1.83;;
15342;SDS011;7771;48.478;8.936;2022-12-29T11:35:56;4.90;;;3.23;;
15342;SDS011;7771;48.478;8.936;2022-12-29T11:38:20;9.30;;;5.00;;
15342;SDS011;7771;48.478;8.936;2022-12-29T11:40:45;7.97;;;5.40;;
15342;SDS011;7771;48.478;8.936;2022-12-29T11:43:19;9.47;;;7.17;;
15342;SDS011;7771;48.478;8.936;2022-12-29T11:45:41;7.43;;;3.57;;
15342;SDS011;7771;48.478;8.936;2022-12-29T11:48:09;10.60;;;7.00;;
15342;SDS011;7771;48.478;8.936;2022-12-29T11:50:37;3.20;;;2.30;;
15342;SDS011;7771;48.478;8.936;2022-12-29T11:53:03;2.60;;;1.90;;
15342;SDS011;7771;48.478;8.936;2022-12-29T11:55:29;4.60;;;2.63;;
15342;SDS011;7771;48.478;8.936;2022-12-29T11:57:57;3.40;;;3.07;;
15342;SDS011;7771;48.478;8.936;2022-12-29T12:00:23;2.90;;;1.80;;
15342;SDS011;7771;48.478;8.936;2022-12-29T12:02:57;2.77;;;2.03;;
15342;SDS011;7771;48.478;8.936;2022-12-29T12:05:28;4.57;;;2.93;;
15342;SDS011;7771;48.478;8.936;2022-12-29T12:07:55;4.23;;;2.30;;
15342;SDS011;7771;48.478;8.936;2022-12-29T12:10:24;5.33;;;2.50;;
15342;SDS011;7771;48.478;8.936;2022-12-29T12:12:52;5.33;;;2.77;;
15342;SDS011;7771;48.478;8.936;2022-12-29T12:15:20;10.17;;;6.87;;
15342;SDS011;7771;48.478;8.936;2022-12-29T12:17:53;8.23;;;5.90;;
15342;SDS011;7771;48.478;8.936;2022-12-29T12:20:21;6.40;;;4.10;;
15342;SDS011;7771;48.478;8.936;2022-12-29T12:22:53;6.63;;;5.50;;
15342;SDS011;7771;48.478;8.936;2022-12-29T12:25:20;3.93;;;3.30;;
15342;SDS011;7771;48.478;8.936;2022-12-29T12:28:52;1.80;;;1.60;;
15342;SDS011;7771;48.478;8.936;2022-12-29T12:30:35;2.37;;;1.80;;
15342;SDS011;7771;48.478;8.936;2022-12-29T12:33:05;2.47;;;2.27;;
15342;SDS011;7771;48.478;8.936;2022-12-29T12:38:17;5.33;;;4.10;;
15342;SDS011;7771;48.478;8.936;2022-12-29T12:40:49;3.33;;;3.03;;
15342;SDS011;7771;48.478;8.936;2022-12-29T12:49:17;6.93;;;2.27;;
15342;SDS011;7771;48.478;8.936;2022-12-29T12:51:44;4.27;;;2.60;;
15342;SDS011;7771;48.478;8.936;2022-12-29T12:56:47;3.90;;;2.70;;
15342;SDS011;7771;48.478;8.936;2022-12-29T13:01:54;2.70;;;2.50;;
15342;SDS011;7771;48.478;8.936;2022-12-29T13:04:26;5.17;;;2.80;;
15342;SDS011;7771;48.478;8.936;2022-12-29T13:07:01;4.90;;;2.57;;
15342;SDS011;7771;48.478;8.936;2022-12-29T13:09:36;2.83;;;2.10;;
15342;SDS011;7771;48.478;8.936;2022-12-29T13:14:49;4.53;;;2.90;;
15342;SDS011;7771;48.478;8.936;2022-12-29T13:17:23;4.70;;;3.20;;
15342;SDS011;7771;48.478;8.936;2022-12-29T13:19:49;3.73;;;2.40;;
15342;SDS011;7771;48.478;8.936;2022-12-29T13:22:26;3.97;;;2.40;;
15342;SDS011;7771;48.478;8.936;2022-12-29T13:24:57;4.83;;;2.90;;
15342;SDS011;7771;48.478;8.936;2022-12-29T13:27:42;5.03;;;2.40;;
15342;SDS011;7771;48.478;8.936;2022-12-29T13:30:28;3.93;;;1.90;;
15342;SDS011;7771;48.478;8.936;2022-12-29T13:33:13;5.90;;;2.23;;
15342;SDS011;7771;48.478;8.936;2022-12-29T13:35:58;2.77;;;2.30;;
15342;SDS011;7771;48.478;8.936;2022-12-29T13:38:26;3.87;;;2.30;;
15342;SDS011;7771;48.478;8.936;2022-12-29T13:40:56;2.53;;;1.77;;
15342;SDS011;7771;48.478;8.936;2022-12-29T13:43:23;4.30;;;1.93;;
15342;SDS011;7771;48.478;8.936;2022-12-29T13:45:55;4.27;;;2.10;;
15342;SDS011;7771;48.478;8.936;2022-12-29T13:48:19;2.87;;;2.17;;
15342;SDS011;7771;48.478;8.936;2022-12-29T13:50:45;2.57;;;1.83;;
15342;SDS011;7771;48.478;8.936;2022-12-29T13:53:19;2.70;;;2.10;;
15342;SDS011;7771;48.478;8.936;2022-12-29T13:56:20;3.50;;;2.03;;
15342;SDS011;7771;48.478;8.936;2022-12-29T13:58:31;3.87;;;2.23;;
15342;SDS011;7771;48.478;8.936;2022-12-29T14:01:22;5.17;;;2.70;;
15342;SDS011;7771;48.478;8.936;2022-12-29T14:03:49;3.93;;;2.57;;
15342;SDS011;7771;48.478;8.936;2022-12-29T14:06:20;3.90;;;2.60;;
15342;SDS011;7771;48.478;8.936;2022-12-29T14:08:46;3.00;;;2.27;;
15342;SDS011;7771;48.478;8.936;2022-12-29T14:11:14;3.60;;;2.13;;
15342;SDS011;7771;48.478;8.936;2022-12-29T14:13:39;4.40;;;2.00;;
15342;SDS011;7771;48.478;8.936;2022-12-29T14:16:05;2.90;;;2.30;;
15342;SDS011;7771;48.478;8.936;2022-12-29T14:18:34;5.63;;;1.87;;
15342;SDS011;7771;48.478;8.936;2022-12-29T14:21:04;3.00;;;1.90;;
15342;SDS011;7771;48.478;8.936;2022-12-29T14:23:44;3.93;;;2.50;;
15342;SDS011;7771;48.478;8.936;2022-12-29T14:26:12;3.10;;;2.03;;
15342;SDS011;7771;48.478;8.936;2022-12-29T14:28:39;2.87;;;2.20;;
15342;SDS011;7771;48.478;8.936;2022-12-29T14:31:18;2.40;;;2.00;;
15342;SDS011;7771;48.478;8.936;2022-12-29T14:33:37;3.77;;;2.30;;
15342;SDS011;7771;48.478;8.936;2022-12-29T14:38:44;4.33;;;2.13;;
15342;SDS011;7771;48.478;8.936;2022-12-29T14:41:17;3.37;;;1.80;;
15342;SDS011;7771;48.478;8.936;2022-12-29T14:43:51;4.93;;;2.40;;
15342;SDS011;7771;48.478;8.936;2022-12-29T14:46:10;2.30;;;1.73;;
15342;SDS011;7771;48.478;8.936;2022-12-29T14:48:38;2.43;;;2.10;;
15342;SDS011;7771;48.478;8.936;2022-12-29T14:51:27;3.60;;;2.40;;
15342;SDS011;7771;48.478;8.936;2022-12-29T14:53:50;3.20;;;1.73;;
15342;SDS011;7771;48.478;8.936;2022-12-29T14:56:17;4.87;;;2.20;;
15342;SDS011;7771;48.478;8.936;2022-12-29T14:58:44;3.70;;;2.33;;
15342;SDS011;7771;48.478;8.936;2022-12-29T15:01:48;2.83;;;1.93;;
15342;SDS011;7771;48.478;8.936;2022-12-29T15:03:58;1.93;;;1.63;;
15342;SDS011;7771;48.478;8.936;2022-12-29T15:06:25;2.60;;;1.80;;
15342;SDS011;7771;48.478;8.936;2022-12-29T15:08:54;5.67;;;2.00;;
15342;SDS011;7771;48.478;8.936;2022-12-29T15:11:24;4.23;;;2.20;;
15342;SDS011;7771;48.478;8.936;2022-12-29T15:13:51;4.77;;;2.70;;
15342;SDS011;7771;48.478;8.936;2022-12-29T15:16:30;4.63;;;2.40;;
15342;SDS011;7771;48.478;8.936;2022-12-29T15:18:55;5.17;;;3.00;;
15342;SDS011;7771;48.478;8.936;2022-12-29T15:21:24;4.40;;;2.20;;
15342;SDS011;7771;48.478;8.936;2022-12-29T15:23:50;4.10;;;2.40;;
15342;SDS011;7771;48.478;8.936;2022-12-29T15:26:17;3.93;;;2.33;;
15342;SDS011;7771;48.478;8.936;2022-12-29T15:28:45;5.03;;;3.63;;
15342;SDS011;7771;48.478;8.936;2022-12-29T15:31:15;5.33;;;3.70;;
15342;SDS011;7771;48.478;8.936;2022-12-29T15:33:41;6.47;;;3.50;;
15342;SDS011;7771;48.478;8.936;2022-12-29T15:36:10;6.97;;;3.77;;
15342;SDS011;7771;48.478;8.936;2022-12-29T15:38:34;5.77;;;3.77;;
15342;SDS011;7771;48.478;8.936;2022-12-29T15:41:06;5.93;;;3.63;;
15342;SDS011;7771;48.478;8.936;2022-12-29T15:43:38;6.00;;;3.60;;
15342;SDS011;7771;48.478;8.936;2022-12-29T15:46:18;4.97;;;3.93;;
15342;SDS011;7771;48.478;8.936;2022-12-29T15:48:44;5.40;;;3.00;;
15342;SDS011;7771;48.478;8.936;2022-12-29T15:51:17;6.93;;;3.90;;